sensor_id;sensor_type;location;lat;lon;timestamp;P1;durP1;ratioP1;P2;durP2;ratioP2
33836;SDS011;20140;49.356;8.812;2023-03-14T00:00:03;6.28;;;1.65;;
33836;SDS011;20140;49.356;8.812;2023-03-14T00:02:33;1.80;;;1.65;;
33836;SDS011;20140;49.356;8.812;2023-03-14T00:04:59;5.20;;;1.75;;
33836;SDS011;20140;49.356;8.812;2023-03-14T00:07:27;2.15;;;1.60;;
33836;SDS011;20140;49.356;8.812;2023-03-14T00:09:56;1.63;;;1.40;;
33836;SDS011;20140;49.356;8.812;2023-03-14T00:12:22;1.02;;;0.82;;
33836;SDS011;20140;49.356;8.812;2023-03-14T00:14:47;8.93;;;2.40;;
33836;SDS011;20140;49.356;8.812;2023-03-14T00:17:13;1.38;;;1.08;;
33836;SDS011;20140;49.356;8.812;2023-03-14T00:19:38;1.50;;;0.90;;
33836;SDS011;20140;49.356;8.812;2023-03-14T00:22:04;0.40;;;0.40;;
33836;SDS011;20140;49.356;8.812;2023-03-14T00:24:29;1.05;;;0.75;;
33836;SDS011;20140;49.356;8.812;2023-03-14T00:26:55;2.78;;;0.68;;
33836;SDS011;20140;49.356;8.812;2023-03-14T00:29:20;1.55;;;0.95;;
33836;SDS011;20140;49.356;8.812;2023-03-14T00:31:46;1.13;;;0.60;;
33836;SDS011;20140;49.356;8.812;2023-03-14T00:34:11;0.77;;;0.65;;
33836;SDS011;20140;49.356;8.812;2023-03-14T00:36:37;2.28;;;0.63;;
33836;SDS011;20140;49.356;8.812;2023-03-14T00:39:02;3.47;;;0.85;;
33836;SDS011;20140;49.356;8.812;2023-03-14T00:41:28;1.23;;;0.32;;
33836;SDS011;20140;49.356;8.812;2023-03-14T00:43:53;2.47;;;0.57;;
33836;SDS011;20140;49.356;8.812;2023-03-14T00:46:19;0.95;;;0.55;;
33836;SDS011;20140;49.356;8.812;2023-03-14T00:48:45;0.73;;;0.40;;
33836;SDS011;20140;49.356;8.812;2023-03-14T00:51:11;0.93;;;0.50;;
33836;SDS011;20140;49.356;8.812;2023-03-14T00:53:38;0.85;;;0.63;;
33836;SDS011;20140;49.356;8.812;2023-03-14T00:56:05;2.22;;;0.68;;
33836;SDS011;20140;49.356;8.812;2023-03-14T00:58:32;1.65;;;0.45;;
33836;SDS011;20140;49.356;8.812;2023-03-14T01:00:58;0.80;;;0.63;;
33836;SDS011;20140;49.356;8.812;2023-03-14T01:03:23;1.25;;;0.40;;
33836;SDS011;20140;49.356;8.812;2023-03-14T01:05:49;1.65;;;0.70;;
33836;SDS011;20140;49.356;8.812;2023-03-14T01:08:15;2.55;;;0.57;;
33836;SDS011;20140;49.356;8.812;2023-03-14T01:10:41;2.65;;;1.30;;
33836;SDS011;20140;49.356;8.812;2023-03-14T01:13:07;0.90;;;0.40;;
33836;SDS011;20140;49.356;8.812;2023-03-14T01:15:34;0.60;;;0.50;;
33836;SDS011;20140;49.356;8.812;2023-03-14T01:18:00;0.20;;;0.20;;
33836;SDS011;20140;49.356;8.812;2023-03-14T01:20:25;0.63;;;0.32;;
33836;SDS011;20140;49.356;8.812;2023-03-14T01:22:51;1.55;;;0.65;;
33836;SDS011;20140;49.356;8.812;2023-03-14T01:25:17;0.85;;;0.30;;
33836;SDS011;20140;49.356;8.812;2023-03-14T01:27:43;0.35;;;0.30;;
33836;SDS011;20140;49.356;8.812;2023-03-14T01:30:09;1.23;;;0.30;;
33836;SDS011;20140;49.356;8.812;2023-03-14T01:32:36;4.05;;;0.50;;
33836;SDS011;20140;49.356;8.812;2023-03-14T01:35:02;1.45;;;1.00;;
33836;SDS011;20140;49.356;8.812;2023-03-14T01:37:28;3.90;;;0.52;;
33836;SDS011;20140;49.356;8.812;2023-03-14T01:39:54;1.38;;;0.30;;
33836;SDS011;20140;49.356;8.812;2023-03-14T01:42:19;2.90;;;1.13;;
33836;SDS011;20140;49.356;8.812;2023-03-14T01:44:52;0.63;;;0.30;;
33836;SDS011;20140;49.356;8.812;2023-03-14T01:47:19;0.80;;;0.50;;
33836;SDS011;20140;49.356;8.812;2023-03-14T01:49:46;0.63;;;0.63;;
33836;SDS011;20140;49.356;8.812;2023-03-14T01:52:24;0.47;;;0.40;;
33836;SDS011;20140;49.356;8.812;2023-03-14T01:54:58;0.40;;;0.32;;
33836;SDS011;20140;49.356;8.812;2023-03-14T01:57:32;1.27;;;0.32;;
33836;SDS011;20140;49.356;8.812;2023-03-14T02:00:21;2.10;;;0.50;;
33836;SDS011;20140;49.356;8.812;2023-03-14T02:02:51;1.08;;;0.70;;
33836;SDS011;20140;49.356;8.812;2023-03-14T02:05:24;0.68;;;0.20;;
33836;SDS011;20140;49.356;8.812;2023-03-14T02:07:54;0.38;;;0.38;;
33836;SDS011;20140;49.356;8.812;2023-03-14T02:10:22;6.65;;;0.52;;
33836;SDS011;20140;49.356;8.812;2023-03-14T02:12:55;1.67;;;0.63;;
33836;SDS011;20140;49.356;8.812;2023-03-14T02:15:21;3.78;;;1.48;;
33836;SDS011;20140;49.356;8.812;2023-03-14T02:17:48;0.50;;;0.30;;
33836;SDS011;20140;49.356;8.812;2023-03-14T02:20:17;1.08;;;0.30;;
33836;SDS011;20140;49.356;8.812;2023-03-14T02:23:04;1.75;;;0.47;;
33836;SDS011;20140;49.356;8.812;2023-03-14T02:28:03;2.15;;;0.80;;
33836;SDS011;20140;49.356;8.812;2023-03-14T02:30:29;1.35;;;0.57;;
33836;SDS011;20140;49.356;8.812;2023-03-14T02:33:17;2.10;;;0.40;;
33836;SDS011;20140;49.356;8.812;2023-03-14T02:35:44;1.25;;;0.60;;
33836;SDS011;20140;49.356;8.812;2023-03-14T02:40:46;0.77;;;0.50;;
33836;SDS011;20140;49.356;8.812;2023-03-14T02:43:12;1.65;;;0.75;;
33836;SDS011;20140;49.356;8.812;2023-03-14T02:48:11;0.65;;;0.50;;
33836;SDS011;20140;49.356;8.812;2023-03-14T02:50:44;0.20;;;0.20;;
33836;SDS011;20140;49.356;8.812;2023-03-14T02:53:13;4.20;;;0.63;;
33836;SDS011;20140;49.356;8.812;2023-03-14T02:55:46;2.38;;;0.63;;
33836;SDS011;20140;49.356;8.812;2023-03-14T02:58:14;1.60;;;0.73;;
33836;SDS011;20140;49.356;8.812;2023-03-14T03:00:40;1.48;;;0.60;;
33836;SDS011;20140;49.356;8.812;2023-03-14T03:03:06;0.32;;;0.32;;
33836;SDS011;20140;49.356;8.812;2023-03-14T03:05:32;2.05;;;0.93;;
33836;SDS011;20140;49.356;8.812;2023-03-14T03:07:58;3.20;;;0.70;;
33836;SDS011;20140;49.356;8.812;2023-03-14T03:10:23;2.67;;;1.10;;
33836;SDS011;20140;49.356;8.812;2023-03-14T03:12:49;0.80;;;0.57;;
33836;SDS011;20140;49.356;8.812;2023-03-14T03:15:16;2.22;;;0.45;;
33836;SDS011;20140;49.356;8.812;2023-03-14T03:17:42;0.65;;;0.50;;
33836;SDS011;20140;49.356;8.812;2023-03-14T03:20:07;1.08;;;0.32;;
33836;SDS011;20140;49.356;8.812;2023-03-14T03:22:34;1.38;;;0.90;;
33836;SDS011;20140;49.356;8.812;2023-03-14T03:25:03;1.92;;;0.80;;
33836;SDS011;20140;49.356;8.812;2023-03-14T03:27:30;0.98;;;0.25;;
33836;SDS011;20140;49.356;8.812;2023-03-14T03:29:57;2.92;;;0.80;;
33836;SDS011;20140;49.356;8.812;2023-03-14T03:32:23;1.10;;;0.50;;
33836;SDS011;20140;49.356;8.812;2023-03-14T03:34:48;1.95;;;0.90;;
33836;SDS011;20140;49.356;8.812;2023-03-14T03:37:14;0.25;;;0.20;;
33836;SDS011;20140;49.356;8.812;2023-03-14T03:39:39;0.82;;;0.60;;
33836;SDS011;20140;49.356;8.812;2023-03-14T03:42:05;1.27;;;0.50;;
33836;SDS011;20140;49.356;8.812;2023-03-14T03:44:30;2.83;;;0.50;;
33836;SDS011;20140;49.356;8.812;2023-03-14T03:46:56;3.10;;;0.80;;
33836;SDS011;20140;49.356;8.812;2023-03-14T03:49:21;0.90;;;0.77;;
33836;SDS011;20140;49.356;8.812;2023-03-14T03:51:47;0.95;;;0.38;;
33836;SDS011;20140;49.356;8.812;2023-03-14T03:54:13;0.52;;;0.22;;
33836;SDS011;20140;49.356;8.812;2023-03-14T03:56:38;1.00;;;0.60;;
33836;SDS011;20140;49.356;8.812;2023-03-14T03:59:04;1.00;;;0.93;;
33836;SDS011;20140;49.356;8.812;2023-03-14T04:01:29;2.60;;;0.93;;
33836;SDS011;20140;49.356;8.812;2023-03-14T04:03:55;0.88;;;0.52;;
33836;SDS011;20140;49.356;8.812;2023-03-14T04:06:20;0.85;;;0.40;;
33836;SDS011;20140;49.356;8.812;2023-03-14T04:08:46;0.73;;;0.70;;
33836;SDS011;20140;49.356;8.812;2023-03-14T04:11:11;0.30;;;0.30;;
33836;SDS011;20140;49.356;8.812;2023-03-14T04:13:37;0.50;;;0.50;;
33836;SDS011;20140;49.356;8.812;2023-03-14T04:16:02;1.00;;;0.52;;
33836;SDS011;20140;49.356;8.812;2023-03-14T04:18:28;2.03;;;0.80;;
33836;SDS011;20140;49.356;8.812;2023-03-14T04:20:55;1.05;;;0.60;;
33836;SDS011;20140;49.356;8.812;2023-03-14T04:23:23;1.00;;;0.88;;
33836;SDS011;20140;49.356;8.812;2023-03-14T04:25:52;0.38;;;0.20;;
33836;SDS011;20140;49.356;8.812;2023-03-14T04:28:18;2.15;;;0.70;;
33836;SDS011;20140;49.356;8.812;2023-03-14T04:30:44;3.30;;;0.47;;
33836;SDS011;20140;49.356;8.812;2023-03-14T04:33:09;2.20;;;0.52;;
33836;SDS011;20140;49.356;8.812;2023-03-14T04:35:35;1.55;;;0.30;;
33836;SDS011;20140;49.356;8.812;2023-03-14T04:38:01;3.30;;;1.25;;
33836;SDS011;20140;49.356;8.812;2023-03-14T04:40:27;4.60;;;0.90;;
33836;SDS011;20140;49.356;8.812;2023-03-14T04:42:53;1.13;;;0.68;;
33836;SDS011;20140;49.356;8.812;2023-03-14T04:45:18;1.30;;;0.80;;
33836;SDS011;20140;49.356;8.812;2023-03-14T04:47:44;0.88;;;0.45;;
33836;SDS011;20140;49.356;8.812;2023-03-14T04:50:09;2.08;;;0.52;;
33836;SDS011;20140;49.356;8.812;2023-03-14T04:52:35;4.32;;;0.82;;
33836;SDS011;20140;49.356;8.812;2023-03-14T04:55:01;1.25;;;0.30;;
33836;SDS011;20140;49.356;8.812;2023-03-14T04:57:26;5.53;;;0.98;;
33836;SDS011;20140;49.356;8.812;2023-03-14T04:59:52;4.90;;;0.63;;
33836;SDS011;20140;49.356;8.812;2023-03-14T05:02:17;1.35;;;0.50;;
33836;SDS011;20140;49.356;8.812;2023-03-14T05:04:43;3.65;;;0.85;;
33836;SDS011;20140;49.356;8.812;2023-03-14T05:07:08;2.95;;;0.40;;
33836;SDS011;20140;49.356;8.812;2023-03-14T05:09:34;1.05;;;0.60;;
33836;SDS011;20140;49.356;8.812;2023-03-14T05:11:59;1.85;;;0.90;;
33836;SDS011;20140;49.356;8.812;2023-03-14T05:14:25;1.88;;;0.45;;
33836;SDS011;20140;49.356;8.812;2023-03-14T05:16:50;11.55;;;1.10;;
33836;SDS011;20140;49.356;8.812;2023-03-14T05:19:16;4.50;;;0.90;;
33836;SDS011;20140;49.356;8.812;2023-03-14T05:21:41;7.35;;;1.45;;
33836;SDS011;20140;49.356;8.812;2023-03-14T05:24:07;3.60;;;0.45;;
33836;SDS011;20140;49.356;8.812;2023-03-14T05:26:32;1.08;;;0.93;;
33836;SDS011;20140;49.356;8.812;2023-03-14T05:28:58;2.35;;;0.63;;
33836;SDS011;20140;49.356;8.812;2023-03-14T05:31:23;1.52;;;0.40;;
33836;SDS011;20140;49.356;8.812;2023-03-14T05:33:49;1.27;;;0.60;;
33836;SDS011;20140;49.356;8.812;2023-03-14T05:36:14;0.82;;;0.45;;
33836;SDS011;20140;49.356;8.812;2023-03-14T05:38:40;3.95;;;1.10;;
33836;SDS011;20140;49.356;8.812;2023-03-14T05:41:05;2.85;;;0.80;;
33836;SDS011;20140;49.356;8.812;2023-03-14T05:43:31;0.68;;;0.28;;
33836;SDS011;20140;49.356;8.812;2023-03-14T05:45:56;4.75;;;0.75;;
33836;SDS011;20140;49.356;8.812;2023-03-14T05:48:22;0.30;;;0.10;;
33836;SDS011;20140;49.356;8.812;2023-03-14T05:50:48;3.13;;;0.65;;
33836;SDS011;20140;49.356;8.812;2023-03-14T05:53:18;1.35;;;0.77;;
33836;SDS011;20140;49.356;8.812;2023-03-14T05:55:44;1.23;;;1.13;;
33836;SDS011;20140;49.356;8.812;2023-03-14T05:58:09;0.93;;;0.90;;
33836;SDS011;20140;49.356;8.812;2023-03-14T06:00:35;4.13;;;0.70;;
33836;SDS011;20140;49.356;8.812;2023-03-14T06:03:00;1.17;;;0.52;;
33836;SDS011;20140;49.356;8.812;2023-03-14T06:05:26;1.85;;;0.68;;
33836;SDS011;20140;49.356;8.812;2023-03-14T06:07:51;1.88;;;0.85;;
33836;SDS011;20140;49.356;8.812;2023-03-14T06:10:17;0.75;;;0.65;;
33836;SDS011;20140;49.356;8.812;2023-03-14T06:12:42;1.17;;;0.35;;
33836;SDS011;20140;49.356;8.812;2023-03-14T06:15:08;2.40;;;0.82;;
33836;SDS011;20140;49.356;8.812;2023-03-14T06:17:34;1.55;;;0.88;;
33836;SDS011;20140;49.356;8.812;2023-03-14T06:19:59;2.67;;;1.48;;
33836;SDS011;20140;49.356;8.812;2023-03-14T06:22:25;0.68;;;0.32;;
33836;SDS011;20140;49.356;8.812;2023-03-14T06:24:50;2.08;;;0.75;;
33836;SDS011;20140;49.356;8.812;2023-03-14T06:27:16;3.40;;;1.40;;
33836;SDS011;20140;49.356;8.812;2023-03-14T06:29:41;5.88;;;0.55;;
33836;SDS011;20140;49.356;8.812;2023-03-14T06:32:07;3.90;;;0.43;;
33836;SDS011;20140;49.356;8.812;2023-03-14T06:34:32;1.45;;;0.30;;
33836;SDS011;20140;49.356;8.812;2023-03-14T06:36:58;3.17;;;1.15;;
33836;SDS011;20140;49.356;8.812;2023-03-14T06:39:24;2.70;;;0.70;;
33836;SDS011;20140;49.356;8.812;2023-03-14T06:41:49;3.72;;;0.95;;
33836;SDS011;20140;49.356;8.812;2023-03-14T06:44:15;0.60;;;0.30;;
33836;SDS011;20140;49.356;8.812;2023-03-14T06:46:40;0.85;;;0.10;;
33836;SDS011;20140;49.356;8.812;2023-03-14T06:49:06;0.57;;;0.13;;
33836;SDS011;20140;49.356;8.812;2023-03-14T06:51:31;0.88;;;0.52;;
33836;SDS011;20140;49.356;8.812;2023-03-14T06:53:57;0.55;;;0.40;;
33836;SDS011;20140;49.356;8.812;2023-03-14T06:56:22;1.25;;;0.43;;
33836;SDS011;20140;49.356;8.812;2023-03-14T06:58:48;2.30;;;0.85;;
33836;SDS011;20140;49.356;8.812;2023-03-14T07:01:17;0.98;;;0.38;;
33836;SDS011;20140;49.356;8.812;2023-03-14T07:03:47;1.80;;;0.45;;
33836;SDS011;20140;49.356;8.812;2023-03-14T07:06:13;0.63;;;0.20;;
33836;SDS011;20140;49.356;8.812;2023-03-14T07:08:38;0.77;;;0.28;;
33836;SDS011;20140;49.356;8.812;2023-03-14T07:11:04;2.80;;;0.50;;
33836;SDS011;20140;49.356;8.812;2023-03-14T07:13:30;2.13;;;0.80;;
33836;SDS011;20140;49.356;8.812;2023-03-14T07:15:55;1.98;;;0.65;;
33836;SDS011;20140;49.356;8.812;2023-03-14T07:18:21;1.35;;;0.50;;
33836;SDS011;20140;49.356;8.812;2023-03-14T07:20:47;0.95;;;0.52;;
33836;SDS011;20140;49.356;8.812;2023-03-14T07:23:12;1.40;;;0.32;;
33836;SDS011;20140;49.356;8.812;2023-03-14T07:25:38;4.68;;;0.60;;
33836;SDS011;20140;49.356;8.812;2023-03-14T07:28:04;0.57;;;0.40;;
33836;SDS011;20140;49.356;8.812;2023-03-14T07:30:29;4.25;;;0.47;;
33836;SDS011;20140;49.356;8.812;2023-03-14T07:32:55;0.90;;;0.20;;
33836;SDS011;20140;49.356;8.812;2023-03-14T07:35:20;1.65;;;1.08;;
33836;SDS011;20140;49.356;8.812;2023-03-14T07:37:46;2.92;;;0.90;;
33836;SDS011;20140;49.356;8.812;2023-03-14T07:40:11;0.93;;;0.60;;
33836;SDS011;20140;49.356;8.812;2023-03-14T07:42:39;3.00;;;0.90;;
33836;SDS011;20140;49.356;8.812;2023-03-14T07:45:06;0.25;;;0.10;;
33836;SDS011;20140;49.356;8.812;2023-03-14T07:47:32;2.72;;;2.00;;
33836;SDS011;20140;49.356;8.812;2023-03-14T07:49:58;1.42;;;0.88;;
33836;SDS011;20140;49.356;8.812;2023-03-14T07:52:23;0.93;;;0.43;;
33836;SDS011;20140;49.356;8.812;2023-03-14T07:54:49;1.55;;;0.30;;
33836;SDS011;20140;49.356;8.812;2023-03-14T07:57:14;2.53;;;1.05;;
33836;SDS011;20140;49.356;8.812;2023-03-14T07:59:41;7.53;;;1.85;;
33836;SDS011;20140;49.356;8.812;2023-03-14T08:02:08;1.95;;;0.90;;
33836;SDS011;20140;49.356;8.812;2023-03-14T08:04:37;0.60;;;0.43;;
33836;SDS011;20140;49.356;8.812;2023-03-14T08:07:03;0.52;;;0.52;;
33836;SDS011;20140;49.356;8.812;2023-03-14T08:09:28;3.00;;;0.40;;
33836;SDS011;20140;49.356;8.812;2023-03-14T08:11:54;2.90;;;1.23;;
33836;SDS011;20140;49.356;8.812;2023-03-14T08:14:19;0.60;;;0.30;;
33836;SDS011;20140;49.356;8.812;2023-03-14T08:16:45;2.72;;;0.40;;
33836;SDS011;20140;49.356;8.812;2023-03-14T08:19:10;2.70;;;0.17;;
33836;SDS011;20140;49.356;8.812;2023-03-14T08:21:36;1.55;;;0.50;;
33836;SDS011;20140;49.356;8.812;2023-03-14T08:24:01;2.60;;;1.10;;
33836;SDS011;20140;49.356;8.812;2023-03-14T08:26:27;2.13;;;0.50;;
33836;SDS011;20140;49.356;8.812;2023-03-14T08:28:53;0.10;;;0.10;;
33836;SDS011;20140;49.356;8.812;2023-03-14T08:31:18;2.70;;;0.82;;
33836;SDS011;20140;49.356;8.812;2023-03-14T08:33:44;6.10;;;0.30;;
33836;SDS011;20140;49.356;8.812;2023-03-14T08:36:10;4.00;;;0.55;;
33836;SDS011;20140;49.356;8.812;2023-03-14T08:38:36;0.30;;;0.30;;
33836;SDS011;20140;49.356;8.812;2023-03-14T08:41:01;2.88;;;1.10;;
33836;SDS011;20140;49.356;8.812;2023-03-14T08:43:28;0.35;;;0.20;;
33836;SDS011;20140;49.356;8.812;2023-03-14T08:45:57;0.43;;;0.30;;
33836;SDS011;20140;49.356;8.812;2023-03-14T08:48:23;0.32;;;0.32;;
33836;SDS011;20140;49.356;8.812;2023-03-14T08:50:48;0.52;;;0.13;;
33836;SDS011;20140;49.356;8.812;2023-03-14T08:53:14;2.92;;;0.90;;
33836;SDS011;20140;49.356;8.812;2023-03-14T08:55:39;0.68;;;0.10;;
33836;SDS011;20140;49.356;8.812;2023-03-14T08:58:05;0.25;;;0.10;;
33836;SDS011;20140;49.356;8.812;2023-03-14T09:00:30;1.88;;;0.65;;
33836;SDS011;20140;49.356;8.812;2023-03-14T09:02:56;1.10;;;0.35;;
33836;SDS011;20140;49.356;8.812;2023-03-14T09:05:21;1.08;;;0.13;;
33836;SDS011;20140;49.356;8.812;2023-03-14T09:07:47;0.10;;;0.10;;
33836;SDS011;20140;49.356;8.812;2023-03-14T09:10:12;1.23;;;0.55;;
33836;SDS011;20140;49.356;8.812;2023-03-14T09:12:38;0.30;;;0.20;;
33836;SDS011;20140;49.356;8.812;2023-03-14T09:15:04;0.20;;;0.10;;
33836;SDS011;20140;49.356;8.812;2023-03-14T09:17:30;0.10;;;0.10;;
33836;SDS011;20140;49.356;8.812;2023-03-14T09:19:55;0.20;;;0.10;;
33836;SDS011;20140;49.356;8.812;2023-03-14T09:22:21;0.75;;;0.45;;
33836;SDS011;20140;49.356;8.812;2023-03-14T09:24:46;1.13;;;0.05;;
33836;SDS011;20140;49.356;8.812;2023-03-14T09:27:12;0.40;;;0.20;;
33836;SDS011;20140;49.356;8.812;2023-03-14T09:29:37;0.63;;;0.22;;
33836;SDS011;20140;49.356;8.812;2023-03-14T09:32:03;1.05;;;0.43;;
33836;SDS011;20140;49.356;8.812;2023-03-14T09:34:29;0.30;;;0.30;;
33836;SDS011;20140;49.356;8.812;2023-03-14T09:36:54;1.08;;;0.40;;
33836;SDS011;20140;49.356;8.812;2023-03-14T09:39:20;0.32;;;0.13;;
33836;SDS011;20140;49.356;8.812;2023-03-14T09:41:49;0.35;;;0.30;;
33836;SDS011;20140;49.356;8.812;2023-03-14T09:44:21;5.28;;;1.25;;
33836;SDS011;20140;49.356;8.812;2023-03-14T09:46:55;0.15;;;0.10;;
33836;SDS011;20140;49.356;8.812;2023-03-14T09:49:29;1.05;;;0.05;;
33836;SDS011;20140;49.356;8.812;2023-03-14T09:51:57;0.03;;;0.03;;
33836;SDS011;20140;49.356;8.812;2023-03-14T09:54:45;0.15;;;0.15;;
33836;SDS011;20140;49.356;8.812;2023-03-14T09:57:15;2.45;;;0.93;;
33836;SDS011;20140;49.356;8.812;2023-03-14T09:59:43;0.28;;;0.10;;
33836;SDS011;20140;49.356;8.812;2023-03-14T10:02:13;0.10;;;0.10;;
33836;SDS011;20140;49.356;8.812;2023-03-14T10:04:47;0.60;;;0.22;;
33836;SDS011;20140;49.356;8.812;2023-03-14T10:07:15;3.83;;;0.30;;
33836;SDS011;20140;49.356;8.812;2023-03-14T10:09:44;0.52;;;0.32;;
33836;SDS011;20140;49.356;8.812;2023-03-14T10:12:12;0.30;;;0.10;;
33836;SDS011;20140;49.356;8.812;2023-03-14T10:14:44;0.20;;;0.17;;
33836;SDS011;20140;49.356;8.812;2023-03-14T10:17:12;0.05;;;0.05;;
33836;SDS011;20140;49.356;8.812;2023-03-14T10:19:52;0.20;;;0.10;;
33836;SDS011;20140;49.356;8.812;2023-03-14T10:22:20;0.00;;;0.00;;
33836;SDS011;20140;49.356;8.812;2023-03-14T10:24:51;0.13;;;0.13;;
33836;SDS011;20140;49.356;8.812;2023-03-14T10:27:29;0.38;;;0.20;;
33836;SDS011;20140;49.356;8.812;2023-03-14T10:29:57;0.10;;;0.10;;
33836;SDS011;20140;49.356;8.812;2023-03-14T10:32:36;0.40;;;0.20;;
33836;SDS011;20140;49.356;8.812;2023-03-14T10:37:50;0.38;;;0.38;;
33836;SDS011;20140;49.356;8.812;2023-03-14T10:40:19;0.00;;;0.00;;
33836;SDS011;20140;49.356;8.812;2023-03-14T10:42:49;0.30;;;0.15;;
33836;SDS011;20140;49.356;8.812;2023-03-14T10:45:22;0.10;;;0.00;;
33836;SDS011;20140;49.356;8.812;2023-03-14T10:47:57;0.98;;;0.30;;
33836;SDS011;20140;49.356;8.812;2023-03-14T10:50:28;0.22;;;0.13;;
33836;SDS011;20140;49.356;8.812;2023-03-14T10:52:56;0.43;;;0.25;;
33836;SDS011;20140;49.356;8.812;2023-03-14T10:55:23;0.40;;;0.40;;
33836;SDS011;20140;49.356;8.812;2023-03-14T10:57:51;1.75;;;0.32;;
33836;SDS011;20140;49.356;8.812;2023-03-14T11:00:21;0.77;;;0.17;;
33836;SDS011;20140;49.356;8.812;2023-03-14T11:05:43;0.25;;;0.10;;
33836;SDS011;20140;49.356;8.812;2023-03-14T11:08:20;0.10;;;0.10;;
33836;SDS011;20140;49.356;8.812;2023-03-14T11:10:54;0.47;;;0.13;;
33836;SDS011;20140;49.356;8.812;2023-03-14T11:13:43;0.20;;;0.10;;
33836;SDS011;20140;49.356;8.812;2023-03-14T11:24:13;4.78;;;0.32;;
33836;SDS011;20140;49.356;8.812;2023-03-14T11:32:08;0.05;;;0.05;;
33836;SDS011;20140;49.356;8.812;2023-03-14T11:37:20;1.63;;;0.20;;
33836;SDS011;20140;49.356;8.812;2023-03-14T11:40:18;0.73;;;0.20;;
33836;SDS011;20140;49.356;8.812;2023-03-14T11:45:44;0.70;;;0.30;;
33836;SDS011;20140;49.356;8.812;2023-03-14T11:50:54;2.45;;;0.22;;
33836;SDS011;20140;49.356;8.812;2023-03-14T11:56:13;0.60;;;0.30;;
33836;SDS011;20140;49.356;8.812;2023-03-14T11:58:49;0.70;;;0.70;;
33836;SDS011;20140;49.356;8.812;2023-03-14T12:01:22;0.95;;;0.20;;
33836;SDS011;20140;49.356;8.812;2023-03-14T12:03:58;0.40;;;0.40;;
33836;SDS011;20140;49.356;8.812;2023-03-14T12:09:13;0.50;;;0.28;;
33836;SDS011;20140;49.356;8.812;2023-03-14T12:16:56;0.20;;;0.20;;
33836;SDS011;20140;49.356;8.812;2023-03-14T12:21:50;0.10;;;0.10;;
33836;SDS011;20140;49.356;8.812;2023-03-14T12:24:21;0.40;;;0.20;;
33836;SDS011;20140;49.356;8.812;2023-03-14T12:26:52;0.10;;;0.10;;
33836;SDS011;20140;49.356;8.812;2023-03-14T12:29:19;2.75;;;0.25;;
33836;SDS011;20140;49.356;8.812;2023-03-14T12:31:46;1.27;;;0.20;;
33836;SDS011;20140;49.356;8.812;2023-03-14T12:42:13;0.88;;;0.22;;
33836;SDS011;20140;49.356;8.812;2023-03-14T12:44:51;2.30;;;1.75;;
33836;SDS011;20140;49.356;8.812;2023-03-14T12:49:45;2.50;;;0.50;;
33836;SDS011;20140;49.356;8.812;2023-03-14T12:52:19;0.47;;;0.30;;
33836;SDS011;20140;49.356;8.812;2023-03-14T12:54:48;0.38;;;0.38;;
33836;SDS011;20140;49.356;8.812;2023-03-14T13:00:17;1.35;;;1.02;;
33836;SDS011;20140;49.356;8.812;2023-03-14T13:02:45;0.43;;;0.40;;
33836;SDS011;20140;49.356;8.812;2023-03-14T13:15:20;1.25;;;0.68;;
33836;SDS011;20140;49.356;8.812;2023-03-14T13:20:48;1.10;;;0.98;;
33836;SDS011;20140;49.356;8.812;2023-03-14T13:30:40;1.30;;;0.40;;
33836;SDS011;20140;49.356;8.812;2023-03-14T14:15:20;2.05;;;0.93;;
33836;SDS011;20140;49.356;8.812;2023-03-14T14:25:26;3.42;;;0.50;;
33836;SDS011;20140;49.356;8.812;2023-03-14T14:32:44;1.33;;;0.60;;
33836;SDS011;20140;49.356;8.812;2023-03-14T16:47:48;4.78;;;0.90;;
33836;SDS011;20140;49.356;8.812;2023-03-14T16:50:14;5.70;;;1.17;;
33836;SDS011;20140;49.356;8.812;2023-03-14T16:52:40;1.55;;;0.60;;
33836;SDS011;20140;49.356;8.812;2023-03-14T16:55:05;1.38;;;0.73;;
33836;SDS011;20140;49.356;8.812;2023-03-14T16:57:31;4.03;;;1.60;;
33836;SDS011;20140;49.356;8.812;2023-03-14T17:00:00;2.15;;;0.50;;
33836;SDS011;20140;49.356;8.812;2023-03-14T17:02:25;3.28;;;1.85;;
33836;SDS011;20140;49.356;8.812;2023-03-14T17:04:51;4.18;;;0.88;;
33836;SDS011;20140;49.356;8.812;2023-03-14T17:07:16;7.10;;;1.35;;
33836;SDS011;20140;49.356;8.812;2023-03-14T17:09:42;2.78;;;1.50;;
33836;SDS011;20140;49.356;8.812;2023-03-14T17:12:07;0.68;;;0.30;;
33836;SDS011;20140;49.356;8.812;2023-03-14T17:14:33;3.13;;;0.60;;
33836;SDS011;20140;49.356;8.812;2023-03-14T17:16:59;0.75;;;0.73;;
33836;SDS011;20140;49.356;8.812;2023-03-14T17:19:24;1.73;;;1.25;;
33836;SDS011;20140;49.356;8.812;2023-03-14T17:21:50;1.90;;;0.85;;
33836;SDS011;20140;49.356;8.812;2023-03-14T17:24:16;3.00;;;0.40;;
33836;SDS011;20140;49.356;8.812;2023-03-14T18:03:16;7.32;;;1.77;;
33836;SDS011;20140;49.356;8.812;2023-03-14T18:10:36;3.47;;;1.63;;
33836;SDS011;20140;49.356;8.812;2023-03-14T18:25:09;6.88;;;2.60;;
33836;SDS011;20140;49.356;8.812;2023-03-14T18:51:51;2.83;;;1.25;;
33836;SDS011;20140;49.356;8.812;2023-03-14T18:54:16;6.38;;;2.38;;
33836;SDS011;20140;49.356;8.812;2023-03-14T19:01:33;3.42;;;0.88;;
33836;SDS011;20140;49.356;8.812;2023-03-14T19:11:17;2.83;;;0.60;;
33836;SDS011;20140;49.356;8.812;2023-03-14T19:23:31;6.65;;;1.05;;
33836;SDS011;20140;49.356;8.812;2023-03-14T19:25:57;3.78;;;0.88;;
33836;SDS011;20140;49.356;8.812;2023-03-14T19:28:23;2.13;;;1.38;;
33836;SDS011;20140;49.356;8.812;2023-03-14T19:30:49;4.88;;;1.02;;
33836;SDS011;20140;49.356;8.812;2023-03-14T19:33:16;1.15;;;1.05;;
33836;SDS011;20140;49.356;8.812;2023-03-14T19:35:42;3.83;;;0.98;;
33836;SDS011;20140;49.356;8.812;2023-03-14T19:38:09;2.38;;;0.90;;
33836;SDS011;20140;49.356;8.812;2023-03-14T19:40:36;4.53;;;1.70;;
33836;SDS011;20140;49.356;8.812;2023-03-14T19:43:03;5.90;;;1.55;;
33836;SDS011;20140;49.356;8.812;2023-03-14T19:45:29;4.80;;;0.90;;
33836;SDS011;20140;49.356;8.812;2023-03-14T19:47:59;5.45;;;1.02;;
33836;SDS011;20140;49.356;8.812;2023-03-14T19:50:26;1.85;;;0.98;;
33836;SDS011;20140;49.356;8.812;2023-03-14T19:52:52;1.90;;;0.95;;
33836;SDS011;20140;49.356;8.812;2023-03-14T19:55:19;1.88;;;0.80;;
33836;SDS011;20140;49.356;8.812;2023-03-14T19:57:45;5.95;;;1.83;;
33836;SDS011;20140;49.356;8.812;2023-03-14T20:00:11;3.53;;;1.80;;
33836;SDS011;20140;49.356;8.812;2023-03-14T20:02:41;2.38;;;2.10;;
33836;SDS011;20140;49.356;8.812;2023-03-14T20:05:08;1.30;;;1.20;;
33836;SDS011;20140;49.356;8.812;2023-03-14T20:07:35;1.17;;;0.80;;
33836;SDS011;20140;49.356;8.812;2023-03-14T20:10:01;9.70;;;1.98;;
33836;SDS011;20140;49.356;8.812;2023-03-14T20:12:28;3.08;;;1.90;;
33836;SDS011;20140;49.356;8.812;2023-03-14T20:14:55;2.83;;;1.88;;
33836;SDS011;20140;49.356;8.812;2023-03-14T20:17:21;3.97;;;1.98;;
33836;SDS011;20140;49.356;8.812;2023-03-14T20:19:46;1.50;;;1.40;;
33836;SDS011;20140;49.356;8.812;2023-03-14T20:22:12;2.45;;;1.88;;
33836;SDS011;20140;49.356;8.812;2023-03-14T20:24:37;2.63;;;1.58;;
33836;SDS011;20140;49.356;8.812;2023-03-14T20:27:03;2.05;;;1.20;;
33836;SDS011;20140;49.356;8.812;2023-03-14T20:29:28;2.25;;;1.13;;
33836;SDS011;20140;49.356;8.812;2023-03-14T20:31:54;0.85;;;0.85;;
33836;SDS011;20140;49.356;8.812;2023-03-14T20:34:20;1.90;;;1.60;;
33836;SDS011;20140;49.356;8.812;2023-03-14T20:36:46;2.28;;;2.08;;
33836;SDS011;20140;49.356;8.812;2023-03-14T20:39:11;1.58;;;1.48;;
33836;SDS011;20140;49.356;8.812;2023-03-14T20:41:39;6.50;;;2.53;;
33836;SDS011;20140;49.356;8.812;2023-03-14T20:44:06;2.90;;;2.00;;
33836;SDS011;20140;49.356;8.812;2023-03-14T20:46:36;3.60;;;2.70;;
33836;SDS011;20140;49.356;8.812;2023-03-14T20:49:02;4.22;;;3.33;;
33836;SDS011;20140;49.356;8.812;2023-03-14T20:51:28;7.05;;;3.95;;
33836;SDS011;20140;49.356;8.812;2023-03-14T20:53:53;3.45;;;3.15;;
33836;SDS011;20140;49.356;8.812;2023-03-14T20:56:19;7.70;;;5.20;;